createdAt,value
2022-11-26T00:01:19.125Z,95.00
2022-11-26T00:03:43.005Z,94.99
2022-11-26T00:06:07.207Z,95.34
2022-11-26T00:08:35.276Z,95.17
2022-11-26T00:10:59.026Z,95.24
2022-11-26T00:13:25.114Z,95.24
2022-11-26T00:15:50.082Z,95.18
2022-11-26T00:18:15.060Z,93.83
2022-11-26T00:20:38.649Z,94.50
2022-11-26T00:23:04.483Z,94.77
2022-11-26T00:25:32.567Z,95.54
2022-11-26T00:27:59.160Z,95.01
2022-11-26T00:30:26.239Z,95.98
2022-11-26T00:32:50.197Z,96.07
2022-11-26T00:35:15.848Z,96.12
2022-11-26T00:37:43.133Z,95.50
2022-11-26T00:40:08.930Z,95.33
2022-11-26T00:42:32.514Z,94.44
2022-11-26T00:44:56.271Z,94.69
2022-11-26T00:47:19.789Z,95.81
2022-11-26T00:49:43.371Z,95.63
2022-11-26T00:52:26.424Z,95.60
2022-11-26T00:54:50.066Z,94.96
2022-11-26T00:57:13.566Z,94.74
2022-11-26T00:59:37.171Z,94.64
2022-11-26T01:02:00.813Z,93.82
2022-11-26T01:04:24.444Z,94.19
2022-11-26T01:06:48.290Z,94.44
2022-11-26T01:09:19.599Z,94.66
2022-11-26T01:11:43.163Z,95.40
2022-11-26T01:14:11.739Z,95.21
2022-11-26T01:16:42.205Z,94.65
2022-11-26T01:19:07.380Z,95.81
2022-11-26T01:21:33.506Z,95.71
2022-11-26T01:23:57.225Z,96.17
2022-11-26T01:26:25.330Z,94.70
2022-11-26T01:28:49.379Z,95.55
2022-11-26T01:31:18.484Z,94.85
2022-11-26T01:33:42.170Z,95.26
2022-11-26T01:36:10.462Z,96.81
2022-11-26T01:38:34.008Z,96.68
2022-11-26T01:41:12.524Z,96.28
2022-11-26T01:43:42.139Z,97.50
2022-11-26T01:46:14.949Z,96.10
2022-11-26T01:48:39.383Z,95.26
2022-11-26T01:51:06.421Z,94.99
2022-11-26T01:53:53.955Z,95.56
2022-11-26T01:56:35.982Z,95.66
2022-11-26T01:59:09.650Z,96.00
2022-11-26T02:01:34.049Z,95.59
2022-11-26T02:04:06.933Z,95.09
2022-11-26T02:06:34.075Z,94.93
2022-11-26T02:09:00.497Z,95.78
2022-11-26T02:11:25.838Z,95.43
2022-11-26T02:13:52.827Z,96.44
2022-11-26T02:16:31.614Z,95.86
2022-11-26T02:19:11.961Z,95.64
2022-11-26T02:21:39.725Z,95.96
2022-11-26T02:24:37.138Z,94.94
2022-11-26T02:27:53.518Z,95.73
2022-11-26T02:30:19.470Z,96.54
2022-11-26T02:32:57.539Z,95.52
2022-11-26T02:35:27.898Z,95.99
2022-11-26T02:37:56.911Z,96.46
2022-11-26T02:40:20.615Z,97.03
2022-11-26T02:42:44.236Z,97.43
2022-11-26T02:45:12.663Z,96.55
2022-11-26T02:47:41.292Z,97.38
2022-11-26T02:50:11.789Z,96.99
2022-11-26T02:52:36.759Z,97.94
2022-11-26T02:55:01.338Z,98.14
2022-11-26T02:57:27.740Z,97.21
2022-11-26T02:59:51.320Z,97.04
2022-11-26T03:02:21.259Z,97.02
2022-11-26T03:04:50.338Z,97.04
2022-11-26T03:07:15.356Z,96.30
2022-11-26T03:09:43.743Z,97.17
2022-11-26T03:12:08.352Z,98.46
2022-11-26T03:14:31.936Z,97.02
2022-11-26T03:16:55.553Z,97.01
2022-11-26T03:19:19.089Z,96.74
2022-11-26T03:21:44.073Z,97.60
2022-11-26T03:24:08.325Z,97.21
2022-11-26T03:26:31.887Z,97.88
2022-11-26T03:28:55.420Z,100.00
2022-11-26T03:31:19.103Z,99.70
2022-11-26T03:33:42.704Z,98.60
2022-11-26T03:36:06.748Z,97.94
2022-11-26T03:38:31.725Z,97.27
2022-11-26T03:40:59.316Z,97.52
2022-11-26T03:43:22.799Z,97.80
2022-11-26T03:45:46.467Z,97.73
2022-11-26T03:48:09.975Z,97.42
2022-11-26T03:50:33.571Z,97.14
2022-11-26T03:52:57.106Z,97.83
2022-11-26T03:55:22.069Z,98.26
2022-11-26T03:57:45.699Z,98.07
2022-11-26T04:00:10.754Z,98.52
2022-11-26T04:02:34.520Z,97.50
2022-11-26T04:04:58.293Z,100.00
2022-11-26T04:07:21.804Z,99.19
2022-11-26T04:09:45.614Z,98.35
2022-11-26T04:12:10.565Z,99.14
2022-11-26T04:14:34.165Z,98.01
2022-11-26T04:16:57.844Z,98.13
2022-11-26T04:19:21.477Z,97.96
2022-11-26T04:21:45.019Z,99.26
2022-11-26T04:24:09.703Z,98.48
2022-11-26T04:26:33.226Z,98.84
2022-11-26T04:28:58.176Z,98.74
2022-11-26T04:31:22.064Z,98.08
2022-11-26T04:33:45.776Z,99.11
2022-11-26T04:36:10.167Z,98.60
2022-11-26T04:38:33.755Z,98.86
2022-11-26T04:40:57.351Z,99.85
2022-11-26T04:43:20.946Z,99.25
2022-11-26T04:45:45.909Z,99.26
2022-11-26T04:48:09.551Z,98.78
2022-11-26T04:50:33.364Z,99.48
2022-11-26T04:52:56.973Z,97.87
2022-11-26T04:55:20.692Z,98.31
2022-11-26T04:57:44.655Z,99.51
2022-11-26T05:00:10.551Z,99.10
2022-11-26T05:02:35.666Z,99.78
2022-11-26T05:04:59.235Z,99.43
2022-11-26T05:07:22.894Z,100.00
2022-11-26T05:09:46.495Z,100.00
2022-11-26T05:12:11.266Z,99.74
2022-11-26T05:14:34.917Z,99.18
2022-11-26T05:16:58.589Z,99.69
2022-11-26T05:19:23.528Z,100.00
2022-11-26T05:21:47.133Z,99.49
2022-11-26T05:24:10.932Z,99.10
2022-11-26T05:26:34.517Z,99.94
2022-11-26T05:28:58.048Z,100.00
2022-11-26T05:31:21.807Z,100.00
2022-11-26T05:33:45.330Z,100.00
2022-11-26T05:36:10.734Z,100.00
2022-11-26T05:38:34.334Z,100.00
2022-11-26T05:40:58.044Z,100.00
2022-11-26T05:43:21.587Z,100.00
2022-11-26T05:45:45.225Z,100.00
2022-11-26T05:48:08.791Z,100.00
2022-11-26T05:50:33.684Z,100.00
2022-11-26T05:52:58.567Z,100.00
2022-11-26T05:55:22.248Z,100.00
2022-11-26T05:57:45.922Z,100.00
2022-11-26T06:00:11.614Z,100.00
2022-11-26T06:02:35.266Z,99.81
2022-11-26T06:04:58.938Z,99.55
2022-11-26T06:07:22.540Z,99.21
2022-11-26T06:09:47.542Z,98.79
2022-11-26T06:12:11.067Z,99.30
2022-11-26T06:14:36.414Z,100.00
2022-11-26T06:17:02.704Z,99.80
2022-11-26T06:19:26.552Z,98.78
2022-11-26T06:21:50.067Z,99.40
2022-11-26T06:24:13.852Z,99.83
2022-11-26T06:26:38.796Z,100.00
2022-11-26T06:29:02.367Z,99.70
2022-11-26T06:31:25.997Z,99.76
2022-11-26T06:33:49.637Z,99.86
2022-11-26T06:36:15.595Z,99.93
2022-11-26T06:38:39.296Z,98.46
2022-11-26T06:41:05.950Z,99.39
2022-11-26T06:43:31.551Z,99.77
2022-11-26T06:45:55.702Z,99.33
2022-11-26T06:48:19.345Z,98.82
2022-11-26T06:50:42.911Z,98.34
2022-11-26T06:53:06.509Z,98.35
2022-11-26T06:55:30.072Z,97.96
2022-11-26T06:57:54.204Z,97.22
2022-11-26T07:00:20.021Z,99.13
2022-11-26T07:02:43.693Z,98.89
2022-11-26T07:05:07.489Z,100.00
2022-11-26T07:07:31.103Z,99.52
2022-11-26T07:09:54.615Z,99.07
2022-11-26T07:12:18.355Z,99.80
2022-11-26T07:14:42.124Z,99.29
2022-11-26T07:17:07.425Z,98.71
2022-11-26T07:19:31.135Z,98.49
2022-11-26T07:21:55.242Z,98.68
2022-11-26T07:24:18.768Z,100.00
2022-11-26T07:26:42.408Z,98.79
2022-11-26T07:29:06.353Z,99.03
2022-11-26T07:31:29.974Z,98.43
2022-11-26T07:33:54.947Z,98.84
2022-11-26T07:36:20.570Z,97.36
2022-11-26T07:38:44.315Z,96.77
2022-11-26T07:41:10.923Z,96.65
2022-11-26T07:43:36.263Z,97.19
2022-11-26T07:46:03.545Z,96.17
2022-11-26T07:48:27.097Z,96.72
2022-11-26T07:50:52.116Z,96.66
2022-11-26T07:53:15.680Z,96.33
2022-11-26T07:55:39.907Z,97.40
2022-11-26T07:58:03.665Z,95.89
2022-11-26T08:00:27.427Z,96.02
2022-11-26T08:02:51.013Z,95.28
2022-11-26T08:05:14.641Z,96.13
2022-11-26T08:07:39.662Z,97.17
2022-11-26T08:10:04.395Z,96.59
2022-11-26T08:12:28.280Z,96.27
2022-11-26T08:14:51.950Z,96.59
2022-11-26T08:17:15.529Z,97.39
2022-11-26T08:19:39.150Z,97.56
2022-11-26T08:22:02.754Z,96.80
2022-11-26T08:24:27.744Z,96.34
2022-11-26T08:26:51.526Z,98.12
2022-11-26T08:29:15.542Z,97.40
2022-11-26T08:31:45.179Z,96.89
2022-11-26T08:34:09.573Z,96.52
2022-11-26T08:36:33.580Z,96.87
2022-11-26T08:38:57.431Z,96.36
2022-11-26T08:41:22.408Z,96.12
2022-11-26T08:44:05.537Z,96.79
2022-11-26T08:46:29.719Z,96.55
2022-11-26T08:48:53.278Z,96.65
2022-11-26T08:51:17.397Z,96.72
2022-11-26T08:53:41.464Z,96.53
2022-11-26T08:56:07.845Z,95.86
2022-11-26T08:58:35.135Z,95.61
2022-11-26T09:00:58.747Z,94.67
2022-11-26T09:03:22.355Z,95.10
2022-11-26T09:05:45.968Z,94.96
2022-11-26T09:08:09.494Z,94.65
2022-11-26T09:10:33.086Z,95.25
2022-11-26T09:12:56.634Z,95.56
2022-11-26T09:15:21.696Z,94.89
2022-11-26T09:17:45.225Z,94.19
2022-11-26T09:20:10.569Z,94.07
2022-11-26T09:22:35.453Z,94.75
2022-11-26T09:24:59.038Z,95.50
2022-11-26T09:27:22.600Z,96.04
2022-11-26T09:29:46.208Z,95.10
2022-11-26T09:32:31.185Z,93.42
2022-11-26T09:34:54.732Z,93.68
2022-11-26T09:37:18.792Z,93.36
2022-11-26T09:39:42.422Z,93.19
2022-11-26T09:42:08.712Z,93.46
2022-11-26T09:45:02.473Z,93.31
2022-11-26T09:47:30.598Z,93.64
2022-11-26T09:50:02.989Z,93.44
2022-11-26T09:52:30.415Z,94.13
2022-11-26T09:55:05.773Z,93.91
2022-11-26T09:57:36.757Z,93.15
2022-11-26T10:00:25.995Z,93.15
2022-11-26T10:02:54.627Z,93.14
2022-11-26T10:05:21.289Z,93.83
2022-11-26T10:08:01.294Z,93.51
2022-11-26T10:10:32.727Z,93.59
2022-11-26T10:13:18.581Z,93.89
2022-11-26T10:15:56.257Z,94.50
2022-11-26T10:18:32.316Z,95.15
2022-11-26T10:21:13.836Z,95.12
2022-11-26T10:23:45.452Z,95.66
2022-11-26T10:26:15.386Z,94.83
2022-11-26T10:28:45.681Z,96.06
2022-11-26T10:31:20.969Z,95.63
2022-11-26T10:33:54.922Z,95.51
2022-11-26T10:36:26.198Z,95.07
2022-11-26T10:38:49.852Z,94.26
2022-11-26T10:41:13.488Z,94.53
2022-11-26T10:43:37.091Z,94.52
2022-11-26T10:46:00.672Z,95.36
2022-11-26T10:48:27.305Z,95.74
2022-11-26T10:51:07.283Z,94.60
2022-11-26T10:53:36.917Z,94.49
2022-11-26T10:56:02.485Z,93.88
2022-11-26T10:58:28.369Z,94.58
2022-11-26T11:00:59.874Z,94.22
2022-11-26T11:03:59.337Z,94.85
2022-11-26T11:06:29.431Z,95.33
2022-11-26T11:08:54.663Z,95.38
2022-11-26T11:11:22.868Z,94.87
2022-11-26T11:13:48.454Z,94.55
2022-11-26T11:16:13.381Z,95.89
2022-11-26T11:18:37.726Z,95.99
2022-11-26T11:21:03.720Z,94.84
2022-11-26T11:24:00.117Z,94.31
2022-11-26T11:26:20.697Z,93.36
2022-11-26T11:28:50.305Z,93.65
2022-11-26T11:31:16.673Z,92.74
2022-11-26T11:33:40.267Z,92.60
2022-11-26T11:36:10.438Z,94.07
2022-11-26T11:38:48.892Z,93.72
2022-11-26T11:41:23.120Z,93.44
2022-11-26T11:43:47.055Z,93.02
2022-11-26T11:46:30.821Z,93.33
2022-11-26T11:49:09.137Z,93.20
2022-11-26T11:51:42.145Z,93.03
2022-11-26T11:54:18.874Z,92.89
2022-11-26T11:56:48.053Z,93.09
2022-11-26T11:59:58.482Z,93.19
2022-11-26T12:02:56.127Z,93.08
2022-11-26T12:05:49.019Z,92.85
2022-11-26T12:08:26.088Z,93.51
2022-11-26T12:11:03.725Z,94.39
2022-11-26T12:13:28.175Z,93.59
2022-11-26T12:15:57.062Z,93.81
2022-11-26T12:18:27.418Z,92.77
2022-11-26T12:20:55.589Z,92.45
2022-11-26T12:23:30.049Z,92.98
2022-11-26T12:26:02.524Z,92.60
2022-11-26T12:28:29.408Z,92.70
2022-11-26T12:30:59.308Z,93.20
2022-11-26T12:33:31.031Z,93.06
2022-11-26T12:35:59.782Z,93.53
2022-11-26T12:38:28.631Z,92.07
2022-11-26T12:41:00.886Z,92.59
2022-11-26T12:43:34.572Z,92.08
2022-11-26T12:46:04.387Z,91.89
2022-11-26T12:48:39.950Z,92.59
2022-11-26T12:51:17.757Z,92.04
2022-11-26T12:53:51.091Z,91.03
2022-11-26T12:56:23.945Z,91.24
2022-11-26T12:59:03.523Z,92.10
2022-11-26T13:01:29.022Z,91.98
2022-11-26T13:04:08.409Z,92.11
2022-11-26T13:06:57.619Z,91.71
2022-11-26T13:09:40.418Z,91.48
2022-11-26T13:12:16.426Z,91.32
2022-11-26T13:14:48.188Z,92.20
2022-11-26T13:17:15.655Z,92.61
2022-11-26T13:19:43.956Z,93.64
2022-11-26T13:22:39.094Z,93.22
2022-11-26T13:25:31.191Z,93.39
2022-11-26T13:28:07.632Z,92.50
2022-11-26T13:30:42.265Z,92.54
2022-11-26T13:33:43.008Z,92.35
2022-11-26T13:36:31.577Z,92.14
2022-11-26T13:39:18.222Z,91.44
2022-11-26T13:42:04.966Z,92.14
2022-11-26T13:45:26.970Z,91.78
2022-11-26T13:47:54.975Z,91.92
2022-11-26T13:50:23.922Z,93.08
2022-11-26T13:52:53.332Z,92.52
2022-11-26T13:55:21.352Z,92.93
2022-11-26T13:57:49.189Z,93.04
2022-11-26T14:00:26.682Z,92.26
2022-11-26T14:02:50.584Z,91.57
2022-11-26T14:05:16.789Z,91.76
2022-11-26T14:07:40.612Z,92.87
2022-11-26T14:10:07.673Z,92.50
2022-11-26T14:13:19.850Z,95.42
2022-11-26T14:16:00.588Z,94.20
2022-11-26T14:19:00.633Z,93.01
2022-11-26T14:21:25.079Z,92.37
2022-11-26T14:23:50.932Z,92.79
2022-11-26T14:26:19.452Z,93.05
2022-11-26T14:28:43.147Z,93.74
2022-11-26T14:31:16.197Z,93.09
2022-11-26T14:33:44.997Z,91.74
2022-11-26T14:36:21.952Z,90.91
2022-11-26T14:38:45.626Z,91.38
2022-11-26T14:41:09.168Z,90.57
2022-11-26T14:43:32.893Z,91.42
2022-11-26T14:46:12.855Z,91.37
2022-11-26T14:48:45.270Z,90.87
2022-11-26T14:51:10.417Z,90.25
2022-11-26T14:53:36.116Z,91.07
2022-11-26T14:56:00.368Z,93.07
2022-11-26T14:58:32.683Z,94.75
2022-11-26T15:01:14.143Z,93.63
2022-11-26T15:03:39.221Z,92.03
2022-11-26T15:06:02.924Z,91.58
2022-11-26T15:08:28.448Z,91.75
2022-11-26T15:10:55.736Z,91.51
2022-11-26T15:13:26.193Z,91.30
2022-11-26T15:15:54.438Z,90.60
2022-11-26T15:18:20.086Z,91.28
2022-11-26T15:20:45.052Z,91.63
2022-11-26T15:23:17.904Z,91.91
2022-11-26T15:25:49.879Z,92.43
2022-11-26T15:28:20.410Z,91.61
2022-11-26T15:30:56.625Z,93.78
2022-11-26T15:33:20.681Z,94.56
2022-11-26T15:35:45.642Z,96.84
2022-11-26T15:38:14.369Z,95.23
2022-11-26T15:40:48.124Z,95.70
2022-11-26T15:43:26.004Z,95.96
2022-11-26T15:45:51.366Z,95.00
2022-11-26T15:48:50.517Z,93.39
2022-11-26T15:51:13.135Z,93.82
2022-11-26T15:53:39.964Z,95.05
2022-11-26T15:56:05.116Z,94.54
2022-11-26T15:58:33.112Z,93.78
2022-11-26T16:01:01.571Z,93.95
2022-11-26T16:03:43.198Z,94.01
2022-11-26T16:06:10.658Z,94.25
2022-11-26T16:08:34.562Z,94.68
2022-11-26T16:11:00.244Z,93.53
2022-11-26T16:13:29.060Z,93.22
2022-11-26T16:15:59.500Z,92.39
2022-11-26T16:18:27.515Z,91.61
2022-11-26T16:20:51.304Z,91.37
2022-11-26T16:23:24.745Z,93.08
2022-11-26T16:26:11.963Z,92.88
2022-11-26T16:28:35.755Z,91.96
2022-11-26T16:30:59.290Z,93.80
2022-11-26T16:33:22.883Z,93.87
2022-11-26T16:35:46.947Z,92.94
2022-11-26T16:38:21.959Z,91.74
2022-11-26T16:40:46.171Z,90.75
2022-11-26T16:43:09.688Z,91.63
2022-11-26T16:45:33.317Z,90.99
2022-11-26T16:47:57.240Z,90.58
2022-11-26T16:50:24.029Z,90.53
2022-11-26T16:52:48.246Z,90.66
2022-11-26T16:55:15.729Z,90.76
2022-11-26T16:57:39.812Z,91.99
2022-11-26T17:00:06.261Z,93.59
2022-11-26T17:02:30.022Z,93.79
2022-11-26T17:04:53.741Z,94.20
2022-11-26T17:07:20.601Z,95.21
2022-11-26T17:09:44.601Z,95.10
2022-11-26T17:12:17.262Z,94.18
2022-11-26T17:14:40.788Z,93.21
2022-11-26T17:17:04.462Z,93.44
2022-11-26T17:19:28.092Z,94.72
2022-11-26T17:21:51.600Z,94.19
2022-11-26T17:24:17.771Z,94.64
2022-11-26T17:26:45.906Z,93.93
2022-11-26T17:29:14.846Z,92.46
2022-11-26T17:31:38.645Z,93.90
2022-11-26T17:34:02.136Z,92.91
2022-11-26T17:36:25.772Z,92.41
2022-11-26T17:38:50.374Z,92.16
2022-11-26T17:41:14.591Z,91.89
2022-11-26T17:43:38.193Z,91.87
2022-11-26T17:46:03.899Z,93.71
2022-11-26T17:48:27.424Z,92.34
2022-11-26T17:50:50.957Z,92.34
2022-11-26T17:53:14.493Z,92.31
2022-11-26T17:55:38.064Z,92.58
2022-11-26T17:58:01.603Z,91.68
2022-11-26T18:00:28.222Z,91.67
2022-11-26T18:02:53.956Z,91.63
2022-11-26T18:05:18.069Z,92.54
2022-11-26T18:07:42.368Z,93.16
2022-11-26T18:10:08.223Z,93.70
2022-11-26T18:12:31.944Z,94.32
2022-11-26T18:14:56.154Z,94.38
2022-11-26T18:17:19.761Z,94.49
2022-11-26T18:19:44.976Z,93.39
2022-11-26T18:22:09.819Z,95.08
2022-11-26T18:24:33.957Z,95.40
2022-11-26T18:26:57.475Z,95.09
2022-11-26T18:29:21.044Z,95.29
2022-11-26T18:31:44.555Z,96.08
2022-11-26T18:34:08.850Z,94.61
2022-11-26T18:36:33.780Z,94.09
2022-11-26T18:38:57.939Z,94.03
2022-11-26T18:41:22.033Z,94.85
2022-11-26T18:43:45.814Z,94.61
2022-11-26T18:46:15.480Z,94.11
2022-11-26T18:48:40.965Z,93.27
2022-11-26T18:51:05.774Z,93.70
2022-11-26T18:53:31.083Z,94.23
2022-11-26T18:55:54.820Z,94.12
2022-11-26T18:58:18.701Z,94.59
2022-11-26T19:00:42.198Z,93.77
2022-11-26T19:03:05.917Z,92.58
2022-11-26T19:05:29.532Z,92.48
2022-11-26T19:07:53.141Z,92.62
2022-11-26T19:10:18.271Z,92.82
2022-11-26T19:12:41.850Z,92.56
2022-11-26T19:15:06.658Z,91.79
2022-11-26T19:17:30.227Z,92.87
2022-11-26T19:19:53.777Z,92.75
2022-11-26T19:22:17.378Z,93.97
2022-11-26T19:24:40.877Z,93.09
2022-11-26T19:27:06.081Z,92.48
2022-11-26T19:29:29.608Z,91.79
2022-11-26T19:31:53.499Z,92.83
2022-11-26T19:34:17.390Z,93.42
2022-11-26T19:36:41.044Z,93.01
2022-11-26T19:39:06.076Z,92.95
2022-11-26T19:41:30.568Z,92.95
2022-11-26T19:43:55.538Z,92.85
2022-11-26T19:46:22.685Z,91.78
2022-11-26T19:48:48.863Z,92.51
2022-11-26T19:51:14.221Z,91.94
2022-11-26T19:53:38.803Z,92.24
2022-11-26T19:56:06.773Z,91.90
2022-11-26T19:58:33.893Z,92.29
2022-11-26T20:00:58.979Z,92.49
2022-11-26T20:03:23.006Z,92.34
2022-11-26T20:05:46.763Z,92.83
2022-11-26T20:08:11.128Z,91.57
2022-11-26T20:10:34.780Z,91.92
2022-11-26T20:12:58.309Z,91.13
2022-11-26T20:15:21.888Z,91.21
2022-11-26T20:17:47.205Z,91.95
2022-11-26T20:20:11.951Z,92.15
2022-11-26T20:22:37.470Z,92.18
2022-11-26T20:25:01.099Z,91.68
2022-11-26T20:27:25.112Z,93.78
2022-11-26T20:29:48.819Z,93.08
2022-11-26T20:32:14.028Z,92.38
2022-11-26T20:34:38.998Z,93.05
2022-11-26T20:37:03.464Z,92.84
2022-11-26T20:39:28.729Z,92.90
2022-11-26T20:41:52.700Z,93.74
2022-11-26T20:44:16.495Z,92.60
2022-11-26T20:46:40.844Z,92.13
2022-11-26T20:49:05.796Z,91.98
2022-11-26T20:51:30.694Z,91.90
2022-11-26T20:53:58.186Z,92.36
2022-11-26T20:56:23.406Z,92.03
2022-11-26T20:58:47.073Z,93.51
2022-11-26T21:01:17.338Z,92.51
2022-11-26T21:03:40.939Z,92.53
2022-11-26T21:06:05.044Z,92.73
2022-11-26T21:08:30.139Z,92.63
2022-11-26T21:10:53.664Z,92.30
2022-11-26T21:13:19.963Z,92.36
2022-11-26T21:15:45.092Z,92.46
2022-11-26T21:18:09.219Z,91.58
2022-11-26T21:20:36.223Z,91.38
2022-11-26T21:23:00.015Z,90.82
2022-11-26T21:25:25.121Z,90.68
2022-11-26T21:27:52.913Z,91.27
2022-11-26T21:30:19.338Z,91.08
2022-11-26T21:32:42.934Z,90.64
2022-11-26T21:35:07.379Z,91.08
2022-11-26T21:37:30.932Z,91.35
2022-11-26T21:39:54.480Z,91.18
2022-11-26T21:42:19.499Z,90.82
2022-11-26T21:44:43.066Z,91.18
2022-11-26T21:47:06.619Z,92.46
2022-11-26T21:49:30.934Z,92.11
2022-11-26T21:51:54.469Z,91.31
2022-11-26T21:54:18.002Z,91.03
2022-11-26T21:56:41.992Z,91.04
2022-11-26T21:59:07.015Z,91.81
2022-11-26T22:01:32.979Z,91.84
2022-11-26T22:04:00.111Z,91.86
2022-11-26T22:06:25.126Z,92.22
2022-11-26T22:08:49.140Z,93.31
2022-11-26T22:11:14.373Z,92.30
2022-11-26T22:13:38.252Z,91.79
2022-11-26T22:16:03.212Z,92.25
2022-11-26T22:18:26.798Z,92.08
2022-11-26T22:20:54.166Z,92.12
2022-11-26T22:23:17.673Z,91.70
2022-11-26T22:25:41.201Z,92.04
2022-11-26T22:28:04.863Z,91.43
2022-11-26T22:30:28.418Z,91.56
2022-11-26T22:32:53.438Z,91.88
2022-11-26T22:35:17.139Z,91.45
2022-11-26T22:37:40.634Z,91.49
2022-11-26T22:40:04.830Z,92.01
2022-11-26T22:42:28.346Z,91.67
2022-11-26T22:44:51.961Z,92.41
2022-11-26T22:47:15.480Z,91.80
2022-11-26T22:49:40.732Z,91.14
2022-11-26T22:52:04.465Z,91.96
2022-11-26T22:54:27.988Z,91.25
2022-11-26T22:56:51.589Z,91.85
2022-11-26T22:59:16.712Z,91.52
2022-11-26T23:01:40.282Z,91.82
2022-11-26T23:04:07.905Z,92.40
2022-11-26T23:06:35.990Z,93.45
2022-11-26T23:09:00.580Z,93.02
2022-11-26T23:11:30.140Z,91.95
2022-11-26T23:13:54.418Z,91.37
2022-11-26T23:16:19.537Z,92.86
2022-11-26T23:18:43.592Z,92.47
2022-11-26T23:21:11.392Z,91.85
2022-11-26T23:23:39.091Z,92.53
2022-11-26T23:26:03.698Z,92.46
2022-11-26T23:28:27.273Z,91.69
2022-11-26T23:30:51.139Z,91.19
2022-11-26T23:33:14.672Z,90.58
2022-11-26T23:35:38.289Z,90.19
2022-11-26T23:38:01.865Z,90.24
2022-11-26T23:40:26.849Z,90.28
2022-11-26T23:42:50.397Z,90.23
2022-11-26T23:45:13.942Z,90.51
2022-11-26T23:47:39.807Z,90.32
2022-11-26T23:50:03.358Z,89.85
2022-11-26T23:52:26.953Z,89.93
2022-11-26T23:54:50.464Z,89.94
2022-11-26T23:57:15.414Z,90.03
2022-11-26T23:59:39.077Z,89.78
